Time;durP1;ratioP1;P1;durP2;ratioP2;P2;SDS_P1;SDS_P2;PMS_P1;PMS_P2;Temp;Humidity;BMP_temperature;BMP_pressure;BME280_temperature;BME280_humidity;BME280_pressure;Samples;Min_cycle;Max_cycle;Signal;HPM_P1;HPM_P2
2020/12/11 00:00:17;;;;;;;20.23;12.32;;;2.40;79.80;;;;;;5055734;28;20028;-61
2020/12/11 00:02:43;;;;;;;18.73;11.27;;;2.40;79.60;;;;;;5072122;28;20016;-61
2020/12/11 00:05:09;;;;;;;20.90;12.27;;;2.40;79.80;;;;;;5070799;28;20033;-61
2020/12/11 00:07:36;;;;;;;20.45;12.00;;;2.30;79.50;;;;;;5073637;28;20017;-60
2020/12/11 00:10:03;;;;;;;23.17;13.40;;;2.30;79.50;;;;;;5063668;28;20048;-62
2020/12/11 00:12:29;;;;;;;18.00;12.00;;;2.30;79.40;;;;;;5066013;28;20021;-62
2020/12/11 00:14:55;;;;;;;20.13;11.85;;;2.20;79.40;;;;;;5075810;28;20468;-61
2020/12/11 00:17:20;;;;;;;18.67;12.15;;;2.20;79.40;;;;;;5069218;28;20032;-61
2020/12/11 00:19:46;;;;;;;20.85;11.05;;;2.20;79.20;;;;;;5065210;28;20025;-61
2020/12/11 00:22:14;;;;;;;20.42;11.13;;;2.20;79.40;;;;;;5071859;28;20028;-60
2020/12/11 00:24:41;;;;;;;19.88;11.40;;;2.20;79.40;;;;;;5071455;28;20060;-61
2020/12/11 00:27:08;;;;;;;18.52;10.18;;;2.20;79.70;;;;;;5070781;28;20123;-61
2020/12/11 00:29:33;;;;;;;17.40;11.20;;;2.20;79.70;;;;;;5062205;28;20021;-61
2020/12/11 00:32:03;;;;;;;17.63;10.27;;;2.10;79.40;;;;;;5071804;28;20020;-61
2020/12/11 00:34:33;;;;;;;19.23;10.57;;;2.20;79.40;;;;;;5071070;28;20400;-61
2020/12/11 00:36:59;;;;;;;18.52;11.15;;;2.10;79.70;;;;;;5071590;28;20024;-61
2020/12/11 00:39:25;;;;;;;19.40;11.43;;;2.10;79.10;;;;;;5069985;28;20535;-61
2020/12/11 00:41:51;;;;;;;19.88;11.52;;;2.10;79.00;;;;;;5063211;28;20103;-61
2020/12/11 00:44:17;;;;;;;20.23;10.80;;;2.10;79.00;;;;;;5070775;28;20036;-61
2020/12/11 00:46:42;;;;;;;20.08;10.98;;;2.10;78.90;;;;;;5050755;28;20020;-60
2020/12/11 00:49:08;;;;;;;17.58;10.93;;;2.10;78.90;;;;;;5067682;28;20124;-61
2020/12/11 00:51:34;;;;;;;18.17;11.00;;;2.10;78.60;;;;;;5072930;28;20025;-61
2020/12/11 00:54:00;;;;;;;18.67;11.98;;;2.00;78.70;;;;;;5061404;28;20020;-61
2020/12/11 00:56:26;;;;;;;18.35;9.93;;;2.00;78.90;;;;;;5069023;28;20028;-61
2020/12/11 00:58:51;;;;;;;14.88;9.73;;;2.00;79.00;;;;;;5073525;28;20020;-61
2020/12/11 01:01:17;;;;;;;16.52;10.20;;;2.00;79.00;;;;;;5072575;28;20021;-61
2020/12/11 01:03:43;;;;;;;16.60;9.75;;;2.00;79.00;;;;;;5060992;28;20017;-61
2020/12/11 01:06:09;;;;;;;16.75;9.73;;;2.00;79.20;;;;;;5076000;28;20086;-61
2020/12/11 01:08:35;;;;;;;18.25;10.48;;;2.00;79.30;;;;;;5068130;28;20024;-61
2020/12/11 01:11:01;;;;;;;15.07;10.07;;;2.00;79.10;;;;;;5062064;28;20049;-61
2020/12/11 01:13:27;;;;;;;18.25;10.98;;;2.00;79.00;;;;;;5060074;28;20515;-60
2020/12/11 01:15:53;;;;;;;17.98;10.82;;;2.00;79.00;;;;;;5066561;28;20100;-61
2020/12/11 01:18:18;;;;;;;17.10;9.73;;;2.00;79.00;;;;;;5066175;28;20072;-61
2020/12/11 01:20:44;;;;;;;14.02;8.63;;;1.90;79.10;;;;;;5060457;28;20421;-61
2020/12/11 01:23:10;;;;;;;17.85;10.82;;;2.00;79.40;;;;;;5064572;28;20028;-61
2020/12/11 01:25:36;;;;;;;19.92;10.88;;;2.00;79.30;;;;;;5074655;28;20029;-61
2020/12/11 01:28:02;;;;;;;18.88;10.77;;;1.90;79.00;;;;;;5073851;28;20046;-61
2020/12/11 01:30:27;;;;;;;17.33;10.60;;;1.90;79.20;;;;;;5075279;28;20028;-61
2020/12/11 01:32:53;;;;;;;16.52;10.93;;;1.90;79.10;;;;;;5075620;28;20016;-61
2020/12/11 01:35:19;;;;;;;17.27;10.40;;;1.90;79.10;;;;;;5072495;28;20078;-61
2020/12/11 01:37:45;;;;;;;16.27;10.05;;;1.80;78.90;;;;;;5068711;28;20021;-61
2020/12/11 01:40:10;;;;;;;17.60;10.02;;;1.80;78.90;;;;;;5063733;28;20045;-61
2020/12/11 01:42:36;;;;;;;16.92;10.40;;;1.80;78.90;;;;;;5056962;28;20377;-61
2020/12/11 01:45:03;;;;;;;15.85;10.27;;;1.80;79.00;;;;;;5073083;28;20048;-61
2020/12/11 01:47:29;;;;;;;15.90;10.27;;;1.70;78.90;;;;;;5085815;28;20078;-61
2020/12/11 01:49:56;;;;;;;16.25;10.10;;;1.70;78.90;;;;;;5084347;28;20044;-62
2020/12/11 01:52:22;;;;;;;19.27;11.60;;;1.70;78.90;;;;;;5074447;28;20021;-61
2020/12/11 01:54:48;;;;;;;20.17;10.90;;;1.60;78.80;;;;;;5089748;28;20024;-62
2020/12/11 01:57:21;;;;;;;18.17;9.98;;;1.60;79.00;;;;;;5086258;28;20069;-61
2020/12/11 01:59:53;;;;;;;17.83;10.50;;;1.50;79.00;;;;;;5076730;28;20040;-61
2020/12/11 02:02:20;;;;;;;15.77;10.65;;;1.50;78.80;;;;;;5075036;28;20163;-61
2020/12/11 02:04:46;;;;;;;19.15;10.75;;;1.50;78.80;;;;;;5084706;28;20028;-61
2020/12/11 02:07:11;;;;;;;17.08;10.43;;;1.40;78.80;;;;;;5060988;28;20361;-62
2020/12/11 02:09:38;;;;;;;19.55;10.52;;;1.40;79.00;;;;;;5085274;28;20502;-60
2020/12/11 02:12:05;;;;;;;17.90;9.40;;;1.30;79.00;;;;;;5083199;28;20021;-61
2020/12/11 02:14:31;;;;;;;15.73;9.73;;;1.30;79.30;;;;;;5071534;28;20029;-61
2020/12/11 02:17:02;;;;;;;21.98;11.02;;;1.30;79.40;;;;;;5069995;28;20028;-61
2020/12/11 02:19:32;;;;;;;18.80;10.55;;;1.30;79.60;;;;;;5064838;28;20033;-61
2020/12/11 02:22:03;;;;;;;17.13;10.00;;;1.30;79.30;;;;;;5087345;28;20036;-61
2020/12/11 02:24:29;;;;;;;20.77;10.90;;;1.30;79.20;;;;;;5070390;28;20025;-61
2020/12/11 02:27:00;;;;;;;18.63;11.30;;;1.30;79.10;;;;;;5069221;28;20500;-61
2020/12/11 02:29:27;;;;;;;18.45;10.65;;;1.30;79.20;;;;;;5051545;28;20052;-60
2020/12/11 02:31:53;;;;;;;18.45;9.88;;;1.20;79.20;;;;;;5052495;28;20017;-61
2020/12/11 02:34:21;;;;;;;17.33;11.00;;;1.20;79.40;;;;;;5051908;28;20045;-61
2020/12/11 02:36:47;;;;;;;18.05;9.45;;;1.20;79.60;;;;;;5056637;28;20036;-61
2020/12/11 02:39:13;;;;;;;18.05;9.57;;;1.20;79.60;;;;;;5041973;28;20032;-61
2020/12/11 02:41:39;;;;;;;18.80;10.05;;;1.20;79.60;;;;;;5053584;28;20124;-60
2020/12/11 02:44:05;;;;;;;19.83;11.13;;;1.20;79.30;;;;;;5041959;28;20152;-61
2020/12/11 02:46:31;;;;;;;20.55;11.00;;;1.20;79.00;;;;;;5047311;28;20520;-61
2020/12/11 02:48:56;;;;;;;19.55;10.88;;;1.10;78.80;;;;;;5046610;28;20021;-61
2020/12/11 02:51:23;;;;;;;16.77;9.80;;;1.00;79.00;;;;;;5037570;28;20164;-62
2020/12/11 02:53:49;;;;;;;16.25;9.82;;;1.00;79.30;;;;;;5045409;28;20025;-60
2020/12/11 02:56:22;;;;;;;14.55;9.57;;;1.00;79.50;;;;;;5036582;28;20044;-61
2020/12/11 02:58:48;;;;;;;18.25;9.95;;;1.00;79.50;;;;;;5049575;28;20028;-61
2020/12/11 03:01:15;;;;;;;16.88;10.68;;;1.00;79.20;;;;;;5050473;28;20029;-60
2020/12/11 03:03:41;;;;;;;17.17;10.52;;;0.90;79.00;;;;;;5042621;28;20472;-60
2020/12/11 03:06:07;;;;;;;15.35;10.30;;;0.90;78.90;;;;;;5051120;28;20036;-60
2020/12/11 03:08:33;;;;;;;16.05;10.98;;;0.80;79.00;;;;;;5050809;28;20036;-61
2020/12/11 03:10:59;;;;;;;15.05;9.63;;;0.80;79.20;;;;;;5050930;28;20021;-61
2020/12/11 03:13:24;;;;;;;17.23;9.45;;;0.80;79.00;;;;;;5041884;28;20091;-61
2020/12/11 03:15:50;;;;;;;17.55;10.32;;;0.80;79.00;;;;;;5045439;28;20551;-61
2020/12/11 03:18:16;;;;;;;18.83;11.15;;;0.80;79.30;;;;;;5053336;28;20445;-61
2020/12/11 03:20:42;;;;;;;19.35;10.73;;;0.80;79.10;;;;;;5045054;28;20473;-61
2020/12/11 03:23:08;;;;;;;19.90;11.43;;;0.70;79.00;;;;;;5052514;28;20029;-61
2020/12/11 03:25:33;;;;;;;20.58;10.60;;;0.60;79.00;;;;;;5053819;28;20031;-61
2020/12/11 03:27:59;;;;;;;19.58;10.73;;;0.60;79.20;;;;;;5061598;28;20468;-61
2020/12/11 03:30:25;;;;;;;18.65;10.75;;;0.60;79.40;;;;;;5047542;28;20090;-61
2020/12/11 03:32:51;;;;;;;21.33;11.88;;;0.60;79.40;;;;;;5048476;28;20017;-61
2020/12/11 03:35:16;;;;;;;18.55;10.73;;;0.60;79.50;;;;;;5051640;28;20104;-61
2020/12/11 03:37:42;;;;;;;13.35;9.15;;;0.50;79.50;;;;;;5050003;28;20112;-61
2020/12/11 03:40:08;;;;;;;17.75;10.10;;;0.60;79.70;;;;;;5034709;28;20067;-60
2020/12/11 03:42:34;;;;;;;17.15;10.00;;;0.60;80.00;;;;;;5044636;28;20373;-61
2020/12/11 03:44:59;;;;;;;17.45;10.48;;;0.60;79.70;;;;;;5050146;28;20032;-59
2020/12/11 03:47:29;;;;;;;18.80;10.65;;;0.60;79.90;;;;;;5049904;28;20021;-61
2020/12/11 03:49:55;;;;;;;22.35;11.05;;;0.60;79.70;;;;;;5040630;28;20020;-60
2020/12/11 03:52:20;;;;;;;19.65;11.10;;;0.60;79.70;;;;;;5047245;28;20024;-60
2020/12/11 03:54:46;;;;;;;17.30;10.48;;;0.60;79.70;;;;;;5053454;28;20091;-61
2020/12/11 03:57:12;;;;;;;17.88;10.50;;;0.50;79.70;;;;;;5050606;28;20100;-61
2020/12/11 03:59:37;;;;;;;21.05;11.15;;;0.50;79.60;;;;;;5047937;28;20555;-61
2020/12/11 04:02:04;;;;;;;21.10;11.15;;;0.50;79.80;;;;;;5047581;28;20132;-60
2020/12/11 04:04:29;;;;;;;20.58;11.63;;;0.50;79.90;;;;;;5053232;28;20025;-60
2020/12/11 04:06:55;;;;;;;21.17;11.02;;;0.50;80.00;;;;;;5047919;28;20469;-61
2020/12/11 04:09:21;;;;;;;22.55;11.50;;;0.50;79.90;;;;;;5047141;28;20139;-59
2020/12/11 04:11:47;;;;;;;21.10;11.75;;;0.50;79.80;;;;;;5050498;28;20104;-60
2020/12/11 04:14:12;;;;;;;19.17;10.90;;;0.50;79.60;;;;;;5053563;28;20036;-60
2020/12/11 04:16:38;;;;;;;19.30;11.45;;;0.50;79.60;;;;;;5037785;28;20432;-60
2020/12/11 04:19:04;;;;;;;23.88;11.75;;;0.50;79.90;;;;;;5046856;28;20357;-61
2020/12/11 04:21:30;;;;;;;25.13;13.07;;;0.50;79.80;;;;;;5047024;28;20018;-60
2020/12/11 04:23:55;;;;;;;19.95;10.80;;;0.50;79.50;;;;;;5041474;28;20084;-60
2020/12/11 04:26:21;;;;;;;21.75;11.95;;;0.50;79.70;;;;;;5052070;28;20044;-60
2020/12/11 04:28:47;;;;;;;19.88;11.10;;;0.50;79.80;;;;;;5068070;28;20085;-61
2020/12/11 04:31:12;;;;;;;17.67;11.02;;;0.50;79.80;;;;;;5071038;28;20465;-60
2020/12/11 04:33:38;;;;;;;22.17;10.55;;;0.50;79.50;;;;;;5061498;28;20123;-60
2020/12/11 04:36:05;;;;;;;25.75;11.75;;;0.50;79.30;;;;;;5052716;28;20017;-60
2020/12/11 04:38:31;;;;;;;19.70;10.90;;;0.40;79.40;;;;;;5062902;28;20032;-60
2020/12/11 04:41:01;;;;;;;20.77;10.35;;;0.40;79.60;;;;;;5039485;28;20021;-60
2020/12/11 04:43:27;;;;;;;20.17;11.40;;;0.40;79.70;;;;;;5056401;28;20028;-60
2020/12/11 04:45:54;;;;;;;19.98;10.85;;;0.40;79.60;;;;;;5063747;28;20086;-60
2020/12/11 04:48:20;;;;;;;19.60;11.05;;;0.40;79.60;;;;;;5065968;28;20091;-58
2020/12/11 04:50:47;;;;;;;20.83;11.10;;;0.30;79.40;;;;;;5061453;28;20029;-60
2020/12/11 04:53:16;;;;;;;21.13;10.82;;;0.30;79.60;;;;;;5069323;28;20037;-60
2020/12/11 04:55:43;;;;;;;20.83;10.65;;;0.30;79.50;;;;;;5089212;28;20113;-60
2020/12/11 04:58:14;;;;;;;21.33;11.75;;;0.20;79.30;;;;;;5075995;28;20059;-61
2020/12/11 05:00:41;;;;;;;20.00;11.20;;;0.20;79.40;;;;;;5073586;28;20455;-59
2020/12/11 05:03:09;;;;;;;19.13;11.20;;;0.10;79.50;;;;;;5073565;28;20028;-60
2020/12/11 05:05:35;;;;;;;17.20;10.80;;;0.10;79.60;;;;;;5068051;28;20465;-60
2020/12/11 05:08:19;;;;;;;20.15;11.75;;;0.10;79.60;;;;;;5068347;28;20074;-61
2020/12/11 05:10:46;;;;;;;19.40;10.38;;;0.10;79.70;;;;;;5067735;28;20067;-60
2020/12/11 05:13:25;;;;;;;23.17;11.57;;;0.00;79.50;;;;;;5068858;28;20032;-60
2020/12/11 05:16:08;;;;;;;19.98;10.45;;;0.00;79.70;;;;;;5058338;28;20029;-61
2020/12/11 05:18:34;;;;;;;17.75;10.50;;;0.00;80.00;;;;;;5071303;28;20033;-61
2020/12/11 05:21:16;;;;;;;22.38;12.50;;;0.00;80.00;;;;;;5070569;28;20467;-60
2020/12/11 05:24:05;;;;;;;23.52;11.20;;;0.00;79.70;;;;;;5069619;28;20029;-61
2020/12/11 05:26:33;;;;;;;19.05;10.25;;;-0.10;79.80;;;;;;5069773;28;20024;-60
2020/12/11 05:28:59;;;;;;;20.88;12.52;;;-0.10;79.80;;;;;;5073609;28;20468;-60
2020/12/11 05:31:25;;;;;;;20.58;11.57;;;-0.10;79.30;;;;;;5074187;28;20021;-60
2020/12/11 05:34:14;;;;;;;21.58;10.82;;;-0.20;79.30;;;;;;5073404;28;20032;-60
2020/12/11 05:36:52;;;;;;;20.02;11.25;;;-0.20;79.70;;;;;;5070690;28;20496;-60
2020/12/11 05:39:32;;;;;;;20.45;10.95;;;-0.20;79.70;;;;;;5068957;28;20025;-61
2020/12/11 05:42:09;;;;;;;18.30;11.00;;;-0.30;79.70;;;;;;5067523;28;20033;-61
2020/12/11 05:44:35;;;;;;;17.85;10.98;;;-0.20;79.60;;;;;;5065906;28;20040;-60
2020/12/11 05:47:20;;;;;;;18.80;10.75;;;-0.30;79.60;;;;;;5074969;28;20028;-60
2020/12/11 05:49:46;;;;;;;19.33;11.30;;;-0.30;79.40;;;;;;5070820;28;20043;-61
2020/12/11 05:52:12;;;;;;;22.80;12.68;;;-0.30;79.40;;;;;;5067259;28;20468;-60
2020/12/11 05:54:41;;;;;;;19.08;11.77;;;-0.30;79.40;;;;;;5072499;28;20032;-61
2020/12/11 05:57:08;;;;;;;18.83;11.00;;;-0.30;78.90;;;;;;5074696;28;20028;-60
2020/12/11 05:59:35;;;;;;;19.05;12.38;;;-0.40;79.10;;;;;;5074134;28;20412;-60
2020/12/11 06:02:02;;;;;;;19.42;12.25;;;-0.40;78.90;;;;;;5071047;28;20025;-60
2020/12/11 06:04:28;;;;;;;20.20;11.90;;;-0.50;78.80;;;;;;5068472;28;20144;-59
2020/12/11 06:06:57;;;;;;;25.48;11.90;;;-0.50;79.20;;;;;;5069817;28;20020;-59
2020/12/11 06:09:43;;;;;;;20.45;11.35;;;-0.50;79.50;;;;;;5071524;28;20017;-60
2020/12/11 06:12:13;;;;;;;22.70;11.52;;;-0.50;79.60;;;;;;5065816;28;20389;-60
2020/12/11 06:14:44;;;;;;;21.08;12.55;;;-0.50;79.70;;;;;;5065742;28;20028;-60
2020/12/11 06:17:11;;;;;;;20.75;11.40;;;-0.40;79.70;;;;;;5064563;28;20086;-59
2020/12/11 06:19:43;;;;;;;19.27;11.93;;;-0.50;79.60;;;;;;5070952;28;20033;-58
2020/12/11 06:22:09;;;;;;;21.52;11.95;;;-0.50;79.60;;;;;;5070303;28;20039;-60
2020/12/11 06:24:35;;;;;;;17.77;10.50;;;-0.50;79.60;;;;;;5073904;28;20174;-58
2020/12/11 06:27:03;;;;;;;17.13;11.32;;;-0.50;79.50;;;;;;5070932;28;20033;-60
2020/12/11 06:29:42;;;;;;;22.20;11.63;;;-0.50;79.70;;;;;;5065135;28;20074;-60
2020/12/11 06:32:09;;;;;;;23.17;11.18;;;-0.50;79.90;;;;;;5065875;28;20052;-60
2020/12/11 06:34:35;;;;;;;19.88;11.43;;;-0.50;79.40;;;;;;5070905;28;20021;-60
2020/12/11 06:37:02;;;;;;;20.92;11.73;;;-0.50;79.50;;;;;;5066492;28;20378;-60
2020/12/11 06:39:45;;;;;;;22.58;11.90;;;-0.50;79.50;;;;;;5070416;28;20028;-60
2020/12/11 06:42:35;;;;;;;18.40;11.50;;;-0.50;79.50;;;;;;5057085;28;20079;-59
2020/12/11 06:45:22;;;;;;;19.40;11.75;;;-0.50;79.80;;;;;;5070281;28;20104;-59
2020/12/11 06:47:53;;;;;;;17.13;11.43;;;-0.50;79.40;;;;;;5072944;28;20052;-60
2020/12/11 06:50:20;;;;;;;24.70;11.70;;;-0.50;79.40;;;;;;5076385;28;20107;-59
2020/12/11 06:52:46;;;;;;;20.45;11.48;;;-0.60;78.90;;;;;;5072802;28;20024;-61
2020/12/11 06:55:12;;;;;;;16.77;10.73;;;-0.60;79.10;;;;;;5066867;28;20435;-60
2020/12/11 06:57:40;;;;;;;22.80;12.02;;;-0.60;79.70;;;;;;5062534;28;20064;-60
2020/12/11 07:00:28;;;;;;;20.27;11.23;;;-0.60;79.70;;;;;;5074834;28;20432;-60
2020/12/11 07:03:13;;;;;;;19.17;10.85;;;-0.50;79.50;;;;;;5070928;28;20425;-60
2020/12/11 07:05:38;;;;;;;18.88;10.63;;;-0.50;79.20;;;;;;5062272;28;20028;-62
2020/12/11 07:08:11;;;;;;;20.23;10.25;;;-0.50;79.10;;;;;;5067427;28;20027;-60
2020/12/11 07:10:37;;;;;;;18.00;10.90;;;-0.50;79.20;;;;;;5062183;28;20389;-60
2020/12/11 07:13:10;;;;;;;23.27;11.77;;;-0.50;79.10;;;;;;5066039;28;20017;-60
2020/12/11 07:15:37;;;;;;;19.63;11.00;;;-0.50;79.10;;;;;;5062838;28;20540;-60
2020/12/11 07:18:04;;;;;;;19.08;10.80;;;-0.50;78.90;;;;;;5056896;28;20032;-60
2020/12/11 07:20:29;;;;;;;18.92;11.73;;;-0.50;79.20;;;;;;5056283;28;20172;-61
2020/12/11 07:22:59;;;;;;;19.98;12.75;;;-0.50;78.60;;;;;;5061424;28;20025;-61
2020/12/11 07:25:27;;;;;;;21.13;12.88;;;-0.50;78.70;;;;;;5061019;28;20035;-60
2020/12/11 07:28:00;;;;;;;19.70;10.43;;;-0.60;78.10;;;;;;5058532;28;20057;-60
2020/12/11 07:30:26;;;;;;;22.15;11.43;;;-0.70;79.00;;;;;;5056862;28;20033;-60
2020/12/11 07:32:54;;;;;;;26.38;13.32;;;-0.70;79.60;;;;;;5059966;28;20020;-60
2020/12/11 07:35:23;;;;;;;19.10;12.10;;;-0.70;79.00;;;;;;5056877;28;20056;-60
2020/12/11 07:37:54;;;;;;;21.45;13.27;;;-0.70;78.80;;;;;;5037741;28;20033;-60
2020/12/11 07:40:21;;;;;;;22.80;13.00;;;-0.70;78.80;;;;;;5059486;28;20090;-61
2020/12/11 07:42:49;;;;;;;22.02;12.20;;;-0.80;78.90;;;;;;5062698;28;20036;-60
2020/12/11 07:45:35;;;;;;;23.88;12.73;;;-0.80;79.10;;;;;;5052162;28;20107;-60
2020/12/11 07:48:03;;;;;;;22.42;14.02;;;-0.90;78.80;;;;;;5057965;28;20036;-61
2020/12/11 07:50:30;;;;;;;24.30;14.07;;;-0.90;79.00;;;;;;5054557;28;20040;-60
2020/12/11 07:52:57;;;;;;;24.60;13.18;;;-0.90;79.70;;;;;;5059064;28;20571;-60
2020/12/11 07:55:27;;;;;;;21.67;12.65;;;-0.90;79.20;;;;;;5053517;28;20025;-60
2020/12/11 07:57:55;;;;;;;23.70;12.35;;;-0.90;79.10;;;;;;5055572;28;20107;-61
2020/12/11 08:00:21;;;;;;;22.50;13.02;;;-0.90;79.40;;;;;;5058771;28;20040;-61
2020/12/11 08:03:04;;;;;;;23.20;12.25;;;-1.00;79.00;;;;;;5056136;28;20039;-61
2020/12/11 08:05:30;;;;;;;22.35;13.07;;;-1.00;79.30;;;;;;5058596;28;20067;-60
2020/12/11 08:07:56;;;;;;;20.52;12.75;;;-1.00;79.50;;;;;;5054286;28;20494;-60
2020/12/11 08:10:24;;;;;;;21.15;12.45;;;-1.00;79.70;;;;;;5058443;28;20625;-61
2020/12/11 08:12:51;;;;;;;18.88;12.10;;;-1.00;79.50;;;;;;5055426;28;20107;-61
2020/12/11 08:15:33;;;;;;;24.27;12.93;;;-1.00;79.90;;;;;;5057208;28;20435;-61
2020/12/11 08:18:09;;;;;;;19.42;11.38;;;-0.90;79.90;;;;;;5053373;28;20036;-61
2020/12/11 08:21:00;;;;;;;21.25;11.63;;;-0.90;80.10;;;;;;5056005;28;20037;-61
2020/12/11 08:23:40;;;;;;;25.17;14.27;;;-0.80;80.30;;;;;;5058415;28;20094;-61
2020/12/11 08:26:16;;;;;;;20.73;13.50;;;-0.80;79.70;;;;;;5056680;28;20036;-61
2020/12/11 08:28:43;;;;;;;17.55;12.15;;;-0.80;79.40;;;;;;5032344;28;20094;-61
2020/12/11 08:31:13;;;;;;;24.48;14.48;;;-0.80;79.50;;;;;;5034046;28;20037;-62
2020/12/11 08:33:39;;;;;;;22.58;13.32;;;-0.80;79.50;;;;;;5039284;28;20025;-61
2020/12/11 08:36:05;;;;;;;22.05;12.85;;;-0.80;79.40;;;;;;5033409;28;20025;-61
2020/12/11 08:38:30;;;;;;;23.45;13.48;;;-0.80;79.40;;;;;;5032258;28;20028;-61
2020/12/11 08:40:56;;;;;;;22.70;12.80;;;-0.80;79.20;;;;;;5030165;28;21750;-60
2020/12/11 08:43:39;;;;;;;22.58;14.00;;;-0.80;79.50;;;;;;5037634;28;20032;-61
2020/12/11 08:46:18;;;;;;;22.58;13.15;;;-0.80;79.30;;;;;;5032022;28;20037;-62
2020/12/11 08:51:26;;;;;;;25.30;14.18;;;-0.90;79.10;;;;;;5031498;28;20781;-62
2020/12/11 08:53:56;;;;;;;22.80;13.15;;;-0.90;79.00;;;;;;5027259;28;20058;-62
2020/12/11 08:56:22;;;;;;;23.17;12.77;;;-1.00;78.90;;;;;;5035322;28;20080;-61
2020/12/11 08:58:48;;;;;;;20.77;12.95;;;-1.00;79.30;;;;;;5024014;28;20117;-62
2020/12/11 09:01:14;;;;;;;20.58;11.43;;;-1.00;80.00;;;;;;5033946;28;20033;-61
2020/12/11 09:03:39;;;;;;;20.90;12.45;;;-1.00;79.40;;;;;;5033361;28;20393;-62
2020/12/11 09:06:05;;;;;;;17.48;11.63;;;-1.00;79.70;;;;;;5036033;28;20035;-61
2020/12/11 09:08:31;;;;;;;20.70;12.63;;;-1.00;79.80;;;;;;5031147;28;20033;-61
2020/12/11 09:10:56;;;;;;;20.52;11.77;;;-1.00;80.20;;;;;;5029186;28;20036;-61
2020/12/11 09:13:22;;;;;;;18.80;11.75;;;-1.00;79.70;;;;;;5032690;28;20071;-62
2020/12/11 09:15:48;;;;;;;23.88;12.20;;;-1.00;80.00;;;;;;5033334;28;20112;-61
2020/12/11 09:18:14;;;;;;;21.65;12.52;;;-1.00;80.00;;;;;;5026467;28;20060;-62
2020/12/11 09:20:39;;;;;;;21.45;13.63;;;-1.00;80.30;;;;;;5028619;28;20112;-61
2020/12/11 09:23:05;;;;;;;19.25;10.70;;;-1.00;80.40;;;;;;5040410;28;20044;-61
2020/12/11 09:25:31;;;;;;;17.70;11.13;;;-0.90;80.40;;;;;;5032968;28;20033;-60
2020/12/11 09:27:56;;;;;;;24.92;13.88;;;-0.90;80.10;;;;;;5026181;28;20048;-62
2020/12/11 09:30:35;;;;;;;19.67;11.65;;;-0.90;79.70;;;;;;5030711;28;20068;-61
2020/12/11 09:35:35;;;;;;;17.27;10.52;;;-0.90;80.00;;;;;;5030764;28;20037;-61
2020/12/11 09:38:02;;;;;;;19.08;12.57;;;-1.00;80.10;;;;;;5031482;28;20028;-62
2020/12/11 09:48:20;;;;;;;23.08;12.02;;;-0.90;80.00;;;;;;5033863;28;20040;-62
2020/12/11 09:55:50;;;;;;;18.67;10.57;;;-0.90;80.10;;;;;;5038453;28;20067;-62
2020/12/11 09:58:16;;;;;;;20.40;13.02;;;-0.90;80.20;;;;;;5032034;28;20033;-62
2020/12/11 10:00:45;;;;;;;19.90;12.75;;;-0.90;80.00;;;;;;5033691;28;20045;-62
2020/12/11 10:03:14;;;;;;;27.65;13.48;;;-0.90;79.90;;;;;;5033731;28;20100;-62
2020/12/11 10:05:41;;;;;;;18.98;11.93;;;-0.80;80.90;;;;;;5032611;28;20516;-62
2020/12/11 10:08:07;;;;;;;22.20;11.63;;;-0.80;79.80;;;;;;5032319;28;20108;-61
2020/12/11 10:10:32;;;;;;;20.50;11.68;;;-0.80;80.10;;;;;;5037636;28;20025;-62
2020/12/11 10:12:59;;;;;;;17.50;10.82;;;-0.80;80.20;;;;;;5034459;28;20452;-62
2020/12/11 10:15:25;;;;;;;17.13;10.88;;;-0.80;79.70;;;;;;5035027;28;20636;-62
2020/12/11 10:17:50;;;;;;;20.00;12.07;;;-0.80;79.90;;;;;;5038122;28;20037;-64
2020/12/11 10:20:20;;;;;;;20.15;11.40;;;-0.80;80.00;;;;;;5031122;28;20030;-61
2020/12/11 10:22:50;;;;;;;17.08;10.38;;;-0.80;79.90;;;;;;5033222;28;20130;-62
2020/12/11 10:25:17;;;;;;;18.23;10.98;;;-0.80;79.90;;;;;;5039549;28;20536;-62
2020/12/11 10:27:43;;;;;;;18.17;10.98;;;-0.70;80.00;;;;;;5044414;28;20049;-62
2020/12/11 10:30:09;;;;;;;18.77;11.30;;;-0.70;79.80;;;;;;5058444;28;20036;-62
2020/12/11 10:32:35;;;;;;;16.65;11.20;;;-0.70;79.50;;;;;;5059847;28;20028;-62
2020/12/11 10:35:00;;;;;;;17.52;10.48;;;-0.70;79.40;;;;;;5061303;28;20047;-62
2020/12/11 10:37:26;;;;;;;20.45;11.52;;;-0.70;79.40;;;;;;5056191;28;20028;-62
2020/12/11 10:39:52;;;;;;;18.45;11.02;;;-0.70;79.70;;;;;;5050985;28;20106;-62
2020/12/11 10:42:18;;;;;;;22.45;12.65;;;-0.70;79.60;;;;;;5052400;28;20040;-62
2020/12/11 10:44:43;;;;;;;17.10;11.80;;;-0.60;79.20;;;;;;5059333;28;20040;-62
2020/12/11 10:47:09;;;;;;;21.88;12.43;;;-0.70;79.50;;;;;;5060377;28;20052;-62
2020/12/11 10:49:35;;;;;;;20.17;12.57;;;-0.70;79.50;;;;;;5053141;28;20074;-62
2020/12/11 10:52:01;;;;;;;19.13;12.13;;;-0.70;79.80;;;;;;5057883;28;20058;-62
2020/12/11 10:54:27;;;;;;;18.30;11.90;;;-0.70;80.00;;;;;;5055652;28;21169;-62
2020/12/11 10:56:53;;;;;;;21.02;12.93;;;-0.60;80.00;;;;;;5055474;28;20039;-62
2020/12/11 10:59:19;;;;;;;21.50;11.82;;;-0.60;79.70;;;;;;5057162;28;20028;-62
2020/12/11 11:01:45;;;;;;;20.70;12.07;;;-0.60;79.60;;;;;;5058553;28;21239;-61
2020/12/11 11:04:10;;;;;;;19.67;12.43;;;-0.60;79.80;;;;;;5050263;28;20502;-62
2020/12/11 11:06:41;;;;;;;17.40;11.75;;;-0.60;79.20;;;;;;5055312;28;20059;-62
2020/12/11 11:12:08;;;;;;;21.27;12.95;;;-0.60;79.40;;;;;;5041327;28;20078;-63
2020/12/11 11:29:57;;;;;;;18.95;12.32;;;-0.50;79.50;;;;;;5035128;28;20029;-62
2020/12/11 11:32:23;;;;;;;23.92;13.18;;;-0.50;80.10;;;;;;5039816;28;20025;-62
2020/12/11 11:34:49;;;;;;;23.88;13.38;;;-0.50;80.00;;;;;;5041899;28;20016;-62
2020/12/11 11:37:14;;;;;;;19.30;14.52;;;-0.50;80.00;;;;;;5044606;28;20028;-63
2020/12/11 11:39:40;;;;;;;18.33;13.23;;;-0.50;80.10;;;;;;5043699;28;20036;-62
2020/12/11 11:42:06;;;;;;;21.45;13.52;;;-0.50;79.70;;;;;;5041076;28;20036;-62
2020/12/11 11:47:16;;;;;;;22.70;13.15;;;-0.40;80.20;;;;;;5037548;28;20099;-62
2020/12/11 11:54:51;;;;;;;19.38;12.45;;;-0.40;80.20;;;;;;5032776;28;20109;-63
2020/12/11 11:57:17;;;;;;;27.73;14.25;;;-0.30;79.90;;;;;;5028918;28;20043;-61
2020/12/11 11:59:43;;;;;;;22.63;13.13;;;-0.30;80.10;;;;;;5025652;28;20470;-62
2020/12/11 12:02:09;;;;;;;21.08;13.57;;;-0.20;80.20;;;;;;5027710;28;20029;-62
2020/12/11 12:04:35;;;;;;;22.70;13.30;;;-0.20;80.00;;;;;;5026398;28;20037;-62
2020/12/11 12:07:01;;;;;;;23.63;13.90;;;-0.20;79.70;;;;;;5035092;28;20021;-62
2020/12/11 12:09:26;;;;;;;19.25;12.32;;;-0.10;79.70;;;;;;5029090;28;20033;-62
2020/12/11 12:11:52;;;;;;;21.77;12.32;;;-0.10;79.40;;;;;;5035671;28;20040;-62
2020/12/11 12:14:18;;;;;;;20.15;12.93;;;0.00;79.00;;;;;;5033674;28;20057;-63
2020/12/11 12:16:44;;;;;;;21.42;12.18;;;0.00;78.90;;;;;;5031485;28;20059;-62
2020/12/11 12:19:24;;;;;;;18.48;11.60;;;0.00;79.00;;;;;;5031366;28;20028;-62
2020/12/11 12:29:36;;;;;;;16.92;10.48;;;0.20;79.10;;;;;;5051127;28;20035;-62
2020/12/11 12:32:14;;;;;;;15.48;10.02;;;0.20;78.70;;;;;;5052899;28;20024;-62
2020/12/11 12:45:09;;;;;;;13.90;9.50;;;0.30;79.70;;;;;;5035580;28;20037;-62
2020/12/11 12:47:36;;;;;;;14.68;8.82;;;0.30;79.40;;;;;;5032008;28;20104;-62
2020/12/11 12:50:03;;;;;;;14.43;9.20;;;0.40;79.90;;;;;;5038738;28;20424;-62
2020/12/11 12:52:29;;;;;;;15.40;10.27;;;0.50;79.90;;;;;;5034560;28;20021;-62
2020/12/11 12:54:55;;;;;;;15.38;8.80;;;0.50;79.50;;;;;;5038162;28;20527;-62
2020/12/11 12:59:55;;;;;;;12.85;8.13;;;0.60;79.50;;;;;;5032728;28;20488;-62
2020/12/11 13:07:31;;;;;;;15.98;8.55;;;0.70;79.50;;;;;;5033407;28;20036;-61
2020/12/11 13:09:57;;;;;;;14.70;8.80;;;0.80;79.40;;;;;;5033516;28;20032;-62
2020/12/11 13:12:23;;;;;;;12.10;9.38;;;0.80;79.50;;;;;;5034411;28;20021;-62
2020/12/11 13:14:49;;;;;;;13.02;8.30;;;0.90;79.50;;;;;;5031869;28;20040;-62
2020/12/11 13:17:15;;;;;;;14.35;8.63;;;0.90;79.60;;;;;;5040980;28;20037;-62
2020/12/11 13:19:41;;;;;;;12.07;8.40;;;1.00;79.50;;;;;;5036718;28;20452;-62
2020/12/11 13:22:35;;;;;;;14.55;8.65;;;1.00;79.20;;;;;;5044941;28;20055;-63
2020/12/11 13:27:40;;;;;;;15.85;8.90;;;1.10;78.40;;;;;;5030501;28;20048;-62
2020/12/11 13:30:06;;;;;;;17.30;9.07;;;1.00;78.20;;;;;;5038248;28;20029;-63
2020/12/11 13:32:32;;;;;;;15.77;8.48;;;1.00;78.10;;;;;;5039315;28;20231;-63
2020/12/11 13:34:58;;;;;;;14.13;8.27;;;1.00;78.10;;;;;;5031725;28;20029;-62
2020/12/11 13:37:28;;;;;;;14.82;8.45;;;1.00;78.30;;;;;;5036465;28;20076;-62
2020/12/11 13:39:55;;;;;;;15.85;8.70;;;1.00;78.40;;;;;;5028880;28;20033;-62
2020/12/11 13:42:21;;;;;;;14.35;8.63;;;1.10;78.80;;;;;;5025681;28;20036;-63
2020/12/11 13:44:46;;;;;;;14.70;9.38;;;1.10;78.70;;;;;;5034934;28;20066;-62
2020/12/11 13:47:12;;;;;;;13.98;7.90;;;1.20;78.70;;;;;;5036283;28;20025;-63
2020/12/11 13:49:38;;;;;;;14.38;9.35;;;1.20;78.40;;;;;;5035995;28;20416;-62